createdAt,value
2018-10-12T00:00:07.355Z,59.57
2018-10-12T00:02:35.416Z,59.56
2018-10-12T00:05:03.485Z,59.42
2018-10-12T00:07:31.537Z,59.33
2018-10-12T00:09:59.619Z,59.43
2018-10-12T00:12:27.710Z,58.84
2018-10-12T00:14:55.764Z,59.46
2018-10-12T00:17:23.827Z,59.94
2018-10-12T00:19:51.884Z,60.12
2018-10-12T00:22:19.944Z,59.65
2018-10-12T00:24:48.044Z,60.52
2018-10-12T00:27:16.090Z,59.95
2018-10-12T00:29:44.156Z,60.07
2018-10-12T00:32:12.208Z,60.38
2018-10-12T00:34:40.288Z,60.86
2018-10-12T00:37:08.337Z,61.60
2018-10-12T00:39:36.392Z,62.16
2018-10-12T00:42:04.543Z,62.37
2018-10-12T00:44:32.613Z,62.25
2018-10-12T00:47:00.696Z,61.67
2018-10-12T00:49:30.165Z,62.59
2018-10-12T00:51:58.216Z,62.42
2018-10-12T00:54:26.280Z,63.04
2018-10-12T00:56:54.322Z,63.17
2018-10-12T00:59:22.397Z,63.65
2018-10-12T01:01:50.436Z,63.25
2018-10-12T01:04:18.609Z,64.25
2018-10-12T01:06:46.755Z,64.85
2018-10-12T01:09:14.746Z,64.48
2018-10-12T01:11:42.841Z,65.75
2018-10-12T01:14:10.896Z,65.84
2018-10-12T01:16:38.995Z,65.22
2018-10-12T01:19:07.065Z,65.14
2018-10-12T01:21:35.141Z,65.04
2018-10-12T01:24:03.202Z,65.35
2018-10-12T01:26:31.274Z,64.86
2018-10-12T01:28:59.353Z,64.40
2018-10-12T01:31:28.258Z,63.52
2018-10-12T01:33:56.327Z,63.63
2018-10-12T01:36:24.450Z,62.94
2018-10-12T01:38:52.744Z,62.64
2018-10-12T01:41:20.816Z,61.84
2018-10-12T01:43:48.909Z,61.39
2018-10-12T01:46:17.041Z,61.00
2018-10-12T01:48:46.780Z,61.17
2018-10-12T01:51:14.849Z,60.75
2018-10-12T01:53:42.908Z,60.31
2018-10-12T01:56:11.016Z,60.28
2018-10-12T01:58:39.080Z,59.96
2018-10-12T02:01:07.183Z,59.95
2018-10-12T02:03:35.316Z,60.53
2018-10-12T02:06:03.464Z,60.80
2018-10-12T02:08:31.544Z,60.35
2018-10-12T02:10:59.608Z,60.57
2018-10-12T02:13:27.667Z,60.48
2018-10-12T02:15:55.732Z,59.87
2018-10-12T02:18:23.868Z,59.94
2018-10-12T02:20:52.049Z,60.02
2018-10-12T02:23:20.108Z,58.86
2018-10-12T02:25:48.173Z,59.56
2018-10-12T02:28:16.220Z,59.52
2018-10-12T02:30:44.290Z,59.12
2018-10-12T02:33:12.340Z,59.70
2018-10-12T02:35:40.404Z,59.86
2018-10-12T02:38:08.460Z,59.96
2018-10-12T02:40:36.594Z,59.83
2018-10-12T02:43:04.666Z,60.07
2018-10-12T02:45:32.740Z,59.98
2018-10-12T02:48:00.826Z,59.48
2018-10-12T02:50:28.938Z,59.63
2018-10-12T02:52:57.068Z,59.74
2018-10-12T02:55:25.131Z,58.93
2018-10-12T02:57:53.190Z,58.37
2018-10-12T03:00:21.321Z,58.44
2018-10-12T03:02:49.377Z,57.93
2018-10-12T03:05:17.527Z,57.85
2018-10-12T03:07:45.589Z,57.65
2018-10-12T03:10:13.644Z,57.80
2018-10-12T03:12:41.708Z,57.38
2018-10-12T03:15:09.761Z,56.74
2018-10-12T03:17:37.834Z,56.34
2018-10-12T03:20:05.893Z,56.71
2018-10-12T03:22:33.975Z,56.21
2018-10-12T03:25:02.112Z,56.75
2018-10-12T03:27:30.244Z,55.96
2018-10-12T03:29:58.310Z,56.04
2018-10-12T03:32:26.385Z,56.44
2018-10-12T03:34:54.477Z,56.14
2018-10-12T03:37:22.609Z,56.97
2018-10-12T03:39:50.608Z,57.31
2018-10-12T03:42:18.672Z,57.11
2018-10-12T03:44:46.728Z,57.79
2018-10-12T03:47:14.852Z,57.90
2018-10-12T03:49:42.907Z,58.82
2018-10-12T03:52:11.524Z,59.22
2018-10-12T03:54:39.625Z,59.44
2018-10-12T03:57:07.908Z,59.28
2018-10-12T03:59:35.972Z,59.54
2018-10-12T04:02:04.127Z,60.01
2018-10-12T04:04:32.237Z,60.12
2018-10-12T04:07:00.306Z,60.25
2018-10-12T04:09:28.366Z,61.28
2018-10-12T04:11:56.441Z,60.97
2018-10-12T04:14:24.509Z,61.50
2018-10-12T04:16:52.592Z,62.56
2018-10-12T04:19:20.664Z,63.16
2018-10-12T04:21:48.751Z,63.68
2018-10-12T04:24:16.808Z,63.60
2018-10-12T04:26:44.885Z,65.01
2018-10-12T04:29:13.062Z,66.29
2018-10-12T04:31:41.135Z,67.06
2018-10-12T04:34:09.197Z,66.22
2018-10-12T04:36:37.273Z,67.89
2018-10-12T04:39:16.937Z,68.76
2018-10-12T04:41:45.017Z,67.56
2018-10-12T04:44:13.088Z,69.21
2018-10-12T04:46:42.525Z,68.56
2018-10-12T04:49:12.508Z,69.69
2018-10-12T04:51:51.301Z,70.27
2018-10-12T04:54:19.721Z,69.77
2018-10-12T04:56:48.317Z,68.64
2018-10-12T04:59:16.372Z,68.26
2018-10-12T05:01:44.468Z,67.95
2018-10-12T05:04:12.621Z,67.42
2018-10-12T05:06:40.712Z,67.41
2018-10-12T05:09:09.861Z,66.61
2018-10-12T05:11:38.033Z,66.46
2018-10-12T05:14:06.340Z,66.06
2018-10-12T05:16:35.012Z,66.32
2018-10-12T05:19:03.088Z,66.33
2018-10-12T05:21:31.427Z,65.94
2018-10-12T05:23:59.496Z,65.34
2018-10-12T05:26:27.555Z,66.02
2018-10-12T05:28:55.682Z,65.97
2018-10-12T05:31:23.748Z,66.21
2018-10-12T05:33:51.926Z,67.17
2018-10-12T05:36:20.008Z,66.80
2018-10-12T05:38:48.097Z,66.52
2018-10-12T05:41:16.197Z,67.34
2018-10-12T05:43:44.424Z,66.98
2018-10-12T05:46:12.429Z,66.19
2018-10-12T05:48:52.057Z,65.88
2018-10-12T05:51:20.078Z,65.70
2018-10-12T05:53:48.468Z,66.11
2018-10-12T05:56:21.281Z,65.44
2018-10-12T05:58:49.434Z,65.37
2018-10-12T06:01:17.514Z,65.41
2018-10-12T06:03:45.573Z,65.12
2018-10-12T06:06:13.628Z,64.80
2018-10-12T06:08:42.364Z,63.61
2018-10-12T06:11:10.431Z,62.60
2018-10-12T06:13:38.610Z,61.97
2018-10-12T06:16:06.904Z,60.93
2018-10-12T06:18:34.976Z,60.88
2018-10-12T06:21:03.052Z,58.88
2018-10-12T06:23:31.123Z,58.54
2018-10-12T06:25:59.172Z,58.02
2018-10-12T06:28:27.323Z,56.54
2018-10-12T06:30:55.392Z,57.14
2018-10-12T06:33:23.474Z,54.89
2018-10-12T06:35:51.557Z,56.33
2018-10-12T06:38:20.463Z,55.93
2018-10-12T06:40:48.542Z,54.62
2018-10-12T06:43:16.674Z,53.99
2018-10-12T06:45:44.745Z,52.47
2018-10-12T06:48:12.824Z,52.59
2018-10-12T06:50:41.764Z,52.88
2018-10-12T06:53:09.970Z,52.48
2018-10-12T06:55:38.088Z,53.05
2018-10-12T06:58:06.349Z,50.39
2018-10-12T07:00:34.612Z,50.93
2018-10-12T07:03:02.774Z,51.07
2018-10-12T07:05:30.938Z,49.82
2018-10-12T07:07:59.094Z,48.86
2018-10-12T07:10:27.231Z,48.44
2018-10-12T07:12:55.336Z,47.96
2018-10-12T07:15:23.468Z,48.50
2018-10-12T07:17:54.465Z,47.16
2018-10-12T07:20:22.591Z,45.97
2018-10-12T07:22:50.715Z,47.46
2018-10-12T07:25:18.856Z,45.51
2018-10-12T07:27:47.102Z,44.93
2018-10-12T07:30:15.228Z,44.33
2018-10-12T07:32:44.691Z,43.61
2018-10-12T07:35:12.843Z,42.83
2018-10-12T07:37:41.023Z,43.78
2018-10-12T07:40:09.218Z,42.52
2018-10-12T07:42:37.670Z,42.66
2018-10-12T07:45:06.017Z,42.20
2018-10-12T07:47:34.422Z,41.72
2018-10-12T07:50:02.324Z,41.40
2018-10-12T07:52:30.455Z,41.85
2018-10-12T07:54:58.677Z,42.31
2018-10-12T07:57:30.508Z,42.36
2018-10-12T07:59:59.239Z,42.06
2018-10-12T08:02:27.329Z,42.61
2018-10-12T08:04:55.507Z,42.05
2018-10-12T08:07:23.610Z,42.51
2018-10-12T08:09:51.772Z,41.81
2018-10-12T08:12:19.928Z,41.50
2018-10-12T08:14:48.243Z,43.43
2018-10-12T08:17:16.840Z,43.05
2018-10-12T08:19:45.376Z,43.76
2018-10-12T08:22:14.044Z,43.70
2018-10-12T08:24:42.489Z,44.62
2018-10-12T08:27:11.001Z,44.56
2018-10-12T08:29:39.519Z,44.71
2018-10-12T08:32:07.861Z,44.10
2018-10-12T08:34:36.093Z,44.21
2018-10-12T08:37:04.255Z,44.59
2018-10-12T08:39:32.938Z,44.25
2018-10-12T08:42:01.271Z,44.75
2018-10-12T08:44:29.602Z,46.11
2018-10-12T08:46:57.813Z,46.72
2018-10-12T08:49:29.629Z,46.59
2018-10-12T08:51:58.006Z,48.02
2018-10-12T08:54:26.485Z,48.26
2018-10-12T08:56:54.699Z,48.46
2018-10-12T08:59:23.157Z,48.35
2018-10-12T09:01:51.379Z,48.82
2018-10-12T09:04:19.734Z,48.43
2018-10-12T09:06:47.867Z,47.98
2018-10-12T09:09:16.154Z,48.69
2018-10-12T09:11:44.280Z,48.35
2018-10-12T09:14:12.517Z,48.62
2018-10-12T09:16:40.684Z,48.13
2018-10-12T09:19:08.853Z,48.25
2018-10-12T09:21:36.998Z,48.79
2018-10-12T09:24:05.112Z,49.03
2018-10-12T09:26:33.241Z,48.45
2018-10-12T09:29:01.410Z,48.85
2018-10-12T09:31:29.573Z,48.78
2018-10-12T09:33:57.692Z,49.23
2018-10-12T09:36:25.800Z,49.65
2018-10-12T09:38:53.984Z,49.11
2018-10-12T09:41:22.129Z,49.72
2018-10-12T09:43:50.343Z,49.92
2018-10-12T09:46:18.512Z,49.15
2018-10-12T09:48:46.650Z,49.06
2018-10-12T09:51:14.809Z,49.81
2018-10-12T09:53:42.935Z,49.27
2018-10-12T09:56:11.109Z,49.91
2018-10-12T09:58:39.258Z,49.70
2018-10-12T10:01:12.672Z,50.40
2018-10-12T10:03:46.154Z,50.22
2018-10-12T10:06:14.298Z,49.55
2018-10-12T10:08:42.679Z,49.26
2018-10-12T10:11:10.702Z,49.70
2018-10-12T10:13:38.915Z,49.49
2018-10-12T10:16:07.113Z,49.88
2018-10-12T10:18:35.433Z,49.53
2018-10-12T10:21:03.634Z,49.08
2018-10-12T10:23:31.675Z,49.85
2018-10-12T10:25:59.827Z,49.21
2018-10-12T10:28:27.932Z,49.55
2018-10-12T10:30:56.037Z,49.72
2018-10-12T10:33:24.190Z,49.92
2018-10-12T10:35:52.317Z,49.59
2018-10-12T10:38:20.643Z,50.07
2018-10-12T10:40:48.773Z,49.04
2018-10-12T10:43:17.092Z,49.05
2018-10-12T10:45:45.378Z,49.64
2018-10-12T10:48:13.621Z,49.08
2018-10-12T10:50:41.846Z,49.29
2018-10-12T10:53:09.992Z,49.69
2018-10-12T10:55:38.249Z,49.28
2018-10-12T10:58:07.019Z,49.42
2018-10-12T11:00:35.190Z,49.48
2018-10-12T11:03:03.361Z,49.72
2018-10-12T11:05:31.582Z,49.47
2018-10-12T11:07:59.845Z,49.23
2018-10-12T11:10:28.069Z,48.64
2018-10-12T11:12:56.433Z,49.58
2018-10-12T11:15:24.511Z,49.10
2018-10-12T11:17:52.636Z,48.53
2018-10-12T11:20:20.849Z,49.12
2018-10-12T11:22:48.981Z,48.60
2018-10-12T11:25:17.117Z,48.68
2018-10-12T11:27:45.248Z,48.33
2018-10-12T11:30:13.388Z,48.17
2018-10-12T11:32:41.583Z,47.75
2018-10-12T11:35:09.666Z,47.78
2018-10-12T11:37:38.129Z,47.96
2018-10-12T11:40:06.779Z,47.34
2018-10-12T11:42:46.301Z,47.21
2018-10-12T11:45:14.549Z,46.44
2018-10-12T11:47:42.817Z,46.08
2018-10-12T11:50:10.929Z,45.63
2018-10-12T11:52:39.069Z,45.66
2018-10-12T11:55:07.277Z,45.96
2018-10-12T11:57:35.391Z,45.92
2018-10-12T12:00:03.521Z,45.69
2018-10-12T12:02:31.748Z,45.50
2018-10-12T12:04:59.853Z,46.41
2018-10-12T12:07:28.011Z,45.51
2018-10-12T12:09:56.197Z,45.96
2018-10-12T12:12:24.435Z,45.24
2018-10-12T12:14:52.643Z,45.67
2018-10-12T12:17:21.079Z,45.48
2018-10-12T12:19:49.215Z,44.92
2018-10-12T12:22:17.342Z,45.27
2018-10-12T12:24:45.594Z,44.92
2018-10-12T12:27:14.189Z,44.34
2018-10-12T12:29:42.305Z,44.56
2018-10-12T12:32:10.439Z,44.42
2018-10-12T12:34:38.664Z,44.72
2018-10-12T12:37:07.095Z,44.33
2018-10-12T12:39:38.362Z,44.54
2018-10-12T12:42:06.574Z,44.85
2018-10-12T12:44:34.727Z,44.61
2018-10-12T12:47:02.899Z,44.95
2018-10-12T12:49:34.096Z,44.40
2018-10-12T12:52:02.047Z,44.55
2018-10-12T12:54:30.167Z,44.91
2018-10-12T12:56:58.329Z,44.51
2018-10-12T12:59:26.440Z,44.61
2018-10-12T13:01:54.625Z,44.47
2018-10-12T13:04:22.946Z,44.61
2018-10-12T13:06:50.810Z,44.84
2018-10-12T13:09:18.929Z,44.66
2018-10-12T13:11:47.572Z,44.44
2018-10-12T13:14:15.750Z,44.20
2018-10-12T13:16:43.860Z,43.72
2018-10-12T13:19:11.980Z,44.25
2018-10-12T13:21:40.080Z,44.28
2018-10-12T13:24:08.213Z,44.07
2018-10-12T13:26:36.398Z,43.75
2018-10-12T13:29:04.938Z,43.57
2018-10-12T13:31:33.374Z,44.15
2018-10-12T13:34:01.624Z,44.33
2018-10-12T13:36:30.132Z,43.75
2018-10-12T13:38:58.271Z,42.70
2018-10-12T13:41:26.397Z,42.97
2018-10-12T13:43:54.609Z,42.89
2018-10-12T13:46:22.873Z,42.92
2018-10-12T13:48:50.973Z,43.13
2018-10-12T13:51:19.376Z,42.75
2018-10-12T13:53:47.557Z,43.11
2018-10-12T13:56:15.717Z,42.80
2018-10-12T13:58:43.971Z,42.65
2018-10-12T14:01:12.114Z,43.14
2018-10-12T14:03:40.605Z,43.54
2018-10-12T14:06:08.778Z,43.21
2018-10-12T14:08:36.907Z,43.12
2018-10-12T14:11:05.027Z,42.93
2018-10-12T14:13:33.158Z,43.30
2018-10-12T14:16:08.096Z,43.20
2018-10-12T14:18:36.289Z,43.49
2018-10-12T14:21:04.382Z,43.10
2018-10-12T14:23:32.528Z,43.86
2018-10-12T14:26:00.673Z,43.96
2018-10-12T14:28:28.812Z,43.75
2018-10-12T14:30:56.999Z,42.75
2018-10-12T14:33:25.260Z,42.92
2018-10-12T14:35:53.435Z,43.39
2018-10-12T14:38:21.624Z,43.46
2018-10-12T14:40:49.899Z,43.07
2018-10-12T14:43:18.057Z,43.48
2018-10-12T14:45:46.144Z,43.88
2018-10-12T14:48:15.333Z,43.57
2018-10-12T14:50:43.509Z,42.40
2018-10-12T14:53:11.703Z,42.58
2018-10-12T14:55:39.862Z,42.70
2018-10-12T14:58:22.613Z,42.76
2018-10-12T15:00:50.774Z,43.38
2018-10-12T15:03:18.938Z,43.28
2018-10-12T15:05:47.126Z,43.01
2018-10-12T15:08:15.335Z,43.01
2018-10-12T15:10:43.483Z,43.07
2018-10-12T15:13:11.708Z,43.20
2018-10-12T15:15:40.007Z,43.56
2018-10-12T15:18:08.277Z,43.45
2018-10-12T15:20:36.385Z,44.00
2018-10-12T15:23:04.591Z,43.99
2018-10-12T15:25:32.785Z,43.88
2018-10-12T15:28:01.184Z,44.02
2018-10-12T15:30:29.360Z,43.74
2018-10-12T15:32:57.545Z,44.01
2018-10-12T15:35:25.893Z,44.22
2018-10-12T15:37:54.106Z,44.66
2018-10-12T15:40:22.314Z,45.13
2018-10-12T15:42:50.504Z,44.36
2018-10-12T15:45:18.640Z,44.38
2018-10-12T15:47:46.913Z,44.81
2018-10-12T15:50:15.066Z,44.74
2018-10-12T15:52:43.228Z,45.45
2018-10-12T15:55:11.455Z,45.44
2018-10-12T15:57:39.589Z,45.44
2018-10-12T16:00:09.275Z,46.12
2018-10-12T16:02:37.452Z,45.63
2018-10-12T16:05:05.653Z,46.00
2018-10-12T16:07:33.868Z,46.55
2018-10-12T16:10:03.400Z,46.50
2018-10-12T16:12:31.522Z,46.70
2018-10-12T16:14:59.781Z,46.35
2018-10-12T16:17:27.945Z,46.41
2018-10-12T16:19:56.150Z,46.62
2018-10-12T16:22:24.419Z,46.70
2018-10-12T16:25:03.965Z,47.06
2018-10-12T16:27:32.200Z,47.11
2018-10-12T16:30:00.458Z,47.63
2018-10-12T16:32:28.594Z,47.38
2018-10-12T16:34:56.775Z,47.71
2018-10-12T16:37:24.905Z,48.41
2018-10-12T16:39:53.068Z,48.48
2018-10-12T16:42:21.233Z,48.63
2018-10-12T16:44:49.446Z,48.16
2018-10-12T16:47:17.668Z,48.88
2018-10-12T16:49:45.857Z,49.19
2018-10-12T16:52:14.100Z,49.28
2018-10-12T16:54:42.231Z,48.83
2018-10-12T16:57:10.370Z,49.00
2018-10-12T16:59:38.521Z,49.70
2018-10-12T17:02:06.669Z,49.17
2018-10-12T17:04:34.944Z,49.85
2018-10-12T17:07:03.078Z,48.92
2018-10-12T17:09:31.300Z,49.35
2018-10-12T17:11:59.497Z,50.14
2018-10-12T17:14:27.626Z,49.75
2018-10-12T17:17:03.132Z,50.00
2018-10-12T17:19:31.358Z,50.42
2018-10-12T17:21:59.526Z,50.48
2018-10-12T17:24:27.777Z,50.71
2018-10-12T17:26:56.184Z,50.67
2018-10-12T17:29:24.444Z,50.48
2018-10-12T17:31:52.729Z,50.48
2018-10-12T17:34:51.871Z,50.52
2018-10-12T17:37:20.048Z,51.14
2018-10-12T17:39:48.335Z,50.69
2018-10-12T17:42:17.608Z,50.86
2018-10-12T17:44:46.108Z,51.04
2018-10-12T17:47:15.262Z,50.98
2018-10-12T17:49:43.626Z,50.87
2018-10-12T17:52:11.779Z,51.50
2018-10-12T17:54:39.911Z,51.33
2018-10-12T17:57:08.177Z,51.61
2018-10-12T17:59:36.381Z,51.98
2018-10-12T18:02:04.664Z,51.46
2018-10-12T18:04:33.212Z,52.10
2018-10-12T18:07:01.459Z,51.70
2018-10-12T18:09:29.709Z,52.38
2018-10-12T18:11:57.876Z,52.50
2018-10-12T18:14:26.028Z,52.09
2018-10-12T18:16:54.185Z,53.02
2018-10-12T18:19:22.320Z,52.94
2018-10-12T18:21:50.517Z,52.79
2018-10-12T18:24:18.624Z,53.12
2018-10-12T18:26:46.737Z,52.61
2018-10-12T18:29:15.093Z,53.39
2018-10-12T18:31:43.237Z,53.50
2018-10-12T18:34:11.340Z,53.00
2018-10-12T18:36:39.520Z,53.94
2018-10-12T18:39:09.070Z,54.06
2018-10-12T18:41:37.177Z,53.65
2018-10-12T18:44:05.462Z,53.92
2018-10-12T18:46:34.231Z,54.56
2018-10-12T18:49:02.455Z,54.09
2018-10-12T18:51:30.565Z,54.57
2018-10-12T18:53:58.667Z,54.57
2018-10-12T18:56:26.730Z,55.30
2018-10-12T18:58:54.865Z,54.99
2018-10-12T19:01:23.075Z,55.52
2018-10-12T19:03:51.164Z,55.07
2018-10-12T19:06:19.299Z,54.96
2018-10-12T19:08:47.384Z,55.94
2018-10-12T19:11:15.440Z,55.54
2018-10-12T19:13:43.557Z,55.80
2018-10-12T19:16:11.609Z,55.89
2018-10-12T19:18:39.685Z,55.83
2018-10-12T19:21:07.740Z,56.20
2018-10-12T19:23:37.450Z,56.83
2018-10-12T19:26:06.942Z,56.83
2018-10-12T19:28:35.461Z,56.62
2018-10-12T19:31:04.882Z,57.30
2018-10-12T19:33:33.168Z,57.09
2018-10-12T19:36:01.236Z,56.88
2018-10-12T19:38:29.373Z,57.65
2018-10-12T19:40:57.530Z,57.56
2018-10-12T19:43:25.750Z,57.20
2018-10-12T19:45:53.923Z,57.51
2018-10-12T19:48:21.980Z,57.60
2018-10-12T19:50:50.077Z,57.52
2018-10-12T19:53:18.197Z,58.25
2018-10-12T19:55:46.252Z,57.93
2018-10-12T19:58:14.324Z,58.56
2018-10-12T20:00:42.384Z,58.28
2018-10-12T20:03:10.460Z,58.35
2018-10-12T20:05:38.604Z,58.77
2018-10-12T20:08:06.933Z,58.40
2018-10-12T20:10:35.196Z,58.79
2018-10-12T20:13:03.169Z,59.25
2018-10-12T20:15:31.249Z,58.82
2018-10-12T20:17:59.446Z,59.31
2018-10-12T20:20:27.698Z,59.76
2018-10-12T20:22:55.760Z,59.08
2018-10-12T20:25:23.831Z,58.80
2018-10-12T20:27:51.945Z,59.82
2018-10-12T20:30:20.188Z,59.17
2018-10-12T20:32:48.244Z,59.74
2018-10-12T20:35:16.304Z,59.42
2018-10-12T20:37:44.406Z,59.41
2018-10-12T20:40:12.564Z,59.10
2018-10-12T20:42:40.660Z,59.83
2018-10-12T20:45:08.743Z,60.03
2018-10-12T20:47:36.808Z,59.72
2018-10-12T20:50:04.893Z,60.14
2018-10-12T20:52:33.024Z,59.85
2018-10-12T20:55:01.330Z,60.15
2018-10-12T20:57:29.392Z,60.47
2018-10-12T20:59:57.473Z,60.04
2018-10-12T21:02:25.544Z,60.08
2018-10-12T21:04:53.614Z,60.56
2018-10-12T21:07:21.684Z,60.44
2018-10-12T21:09:50.024Z,60.25
2018-10-12T21:12:18.089Z,60.66
2018-10-12T21:14:46.152Z,60.91
2018-10-12T21:17:14.281Z,60.70
2018-10-12T21:19:42.353Z,60.62
2018-10-12T21:22:10.441Z,60.81
2018-10-12T21:24:38.496Z,60.95
2018-10-12T21:27:06.572Z,60.99
2018-10-12T21:29:34.636Z,61.07
2018-10-12T21:32:02.736Z,60.57
2018-10-12T21:34:30.792Z,60.64
2018-10-12T21:36:58.873Z,60.98
2018-10-12T21:39:26.936Z,60.82
2018-10-12T21:41:55.012Z,60.44
2018-10-12T21:44:23.161Z,60.97
2018-10-12T21:46:51.268Z,60.31
2018-10-12T21:49:19.305Z,60.84
2018-10-12T21:51:47.380Z,60.51
2018-10-12T21:54:15.445Z,61.27
2018-10-12T21:56:43.544Z,60.90
2018-10-12T21:59:11.817Z,60.42
2018-10-12T22:01:39.917Z,60.64
2018-10-12T22:04:08.145Z,60.31
2018-10-12T22:06:36.209Z,61.04
2018-10-12T22:09:07.062Z,60.32
2018-10-12T22:11:35.148Z,60.28
2018-10-12T22:14:03.470Z,60.35
2018-10-12T22:16:31.488Z,60.46
2018-10-12T22:18:59.572Z,60.14
2018-10-12T22:21:27.768Z,60.15
2018-10-12T22:23:55.964Z,60.52
2018-10-12T22:26:24.016Z,60.34
2018-10-12T22:28:52.124Z,60.52
2018-10-12T22:31:20.185Z,60.55
2018-10-12T22:36:15.504Z,60.16
2018-10-12T22:38:43.644Z,59.90
2018-10-12T22:41:11.709Z,60.28
2018-10-12T22:43:39.786Z,60.32
2018-10-12T22:46:07.896Z,60.48
2018-10-12T22:48:35.964Z,60.57
2018-10-12T22:51:04.028Z,60.46
2018-10-12T22:53:32.104Z,60.62
2018-10-12T22:56:00.160Z,60.28
2018-10-12T22:58:28.240Z,60.04
2018-10-12T23:00:56.293Z,60.39
2018-10-12T23:03:24.368Z,60.68
2018-10-12T23:05:52.427Z,60.67
2018-10-12T23:08:20.503Z,60.09
2018-10-12T23:10:48.560Z,60.08
2018-10-12T23:13:16.623Z,60.38
2018-10-12T23:15:44.691Z,60.15
2018-10-12T23:18:12.768Z,60.47
2018-10-12T23:20:40.833Z,60.04
2018-10-12T23:23:08.918Z,60.00
2018-10-12T23:25:36.976Z,60.60
2018-10-12T23:28:05.098Z,60.06
2018-10-12T23:30:33.155Z,60.64
2018-10-12T23:33:12.690Z,60.46
2018-10-12T23:35:40.744Z,60.57
2018-10-12T23:38:08.795Z,60.33
2018-10-12T23:40:36.866Z,60.35
2018-10-12T23:43:04.928Z,60.73
2018-10-12T23:45:33.056Z,60.72
2018-10-12T23:48:01.216Z,60.96
2018-10-12T23:50:29.293Z,60.88
2018-10-12T23:52:57.349Z,60.70
2018-10-12T23:55:25.417Z,60.78
2018-10-12T23:57:53.481Z,60.78
